sensor_id;sensor_type;location;lat;lon;timestamp;temperature;humidity
53643;DHT22;39546;45.534;12.048;2024-02-15T00:03:05;10.00;84.50
53643;DHT22;39546;45.534;12.048;2024-02-15T00:09:07;10.10;84.00
53643;DHT22;39546;45.534;12.048;2024-02-15T00:15:14;9.90;83.60
53643;DHT22;39546;45.534;12.048;2024-02-15T00:21:15;9.70;84.40
53643;DHT22;39546;45.534;12.048;2024-02-15T00:27:17;10.00;84.60
53643;DHT22;39546;45.534;12.048;2024-02-15T00:33:19;10.30;84.80
53643;DHT22;39546;45.534;12.048;2024-02-15T00:39:20;10.40;84.50
53643;DHT22;39546;45.534;12.048;2024-02-15T00:45:22;10.50;84.20
53643;DHT22;39546;45.534;12.048;2024-02-15T00:51:23;10.60;84.00
53643;DHT22;39546;45.534;12.048;2024-02-15T00:57:25;10.60;83.80
53643;DHT22;39546;45.534;12.048;2024-02-15T01:03:27;10.60;84.00
53643;DHT22;39546;45.534;12.048;2024-02-15T01:09:29;10.60;84.10
53643;DHT22;39546;45.534;12.048;2024-02-15T01:15:31;10.50;83.90
53643;DHT22;39546;45.534;12.048;2024-02-15T01:21:32;10.50;83.70
53643;DHT22;39546;45.534;12.048;2024-02-15T01:27:38;10.50;83.80
53643;DHT22;39546;45.534;12.048;2024-02-15T01:33:40;10.40;84.10
53643;DHT22;39546;45.534;12.048;2024-02-15T01:39:41;10.40;84.20
53643;DHT22;39546;45.534;12.048;2024-02-15T01:45:43;10.50;84.00
53643;DHT22;39546;45.534;12.048;2024-02-15T01:51:46;10.40;83.90
53643;DHT22;39546;45.534;12.048;2024-02-15T01:57:49;10.20;83.90
53643;DHT22;39546;45.534;12.048;2024-02-15T02:03:51;10.10;84.20
53643;DHT22;39546;45.534;12.048;2024-02-15T02:09:53;10.10;83.90
53643;DHT22;39546;45.534;12.048;2024-02-15T02:15:55;10.20;83.80
53643;DHT22;39546;45.534;12.048;2024-02-15T02:21:58;10.30;84.10
53643;DHT22;39546;45.534;12.048;2024-02-15T02:27:59;10.30;83.90
53643;DHT22;39546;45.534;12.048;2024-02-15T02:34:01;10.20;83.90
53643;DHT22;39546;45.534;12.048;2024-02-15T02:40:07;10.20;84.10
53643;DHT22;39546;45.534;12.048;2024-02-15T02:46:13;10.20;83.90
53643;DHT22;39546;45.534;12.048;2024-02-15T02:52:15;10.00;83.90
53643;DHT22;39546;45.534;12.048;2024-02-15T02:58:17;10.00;83.90
53643;DHT22;39546;45.534;12.048;2024-02-15T03:04:18;9.90;84.00
53643;DHT22;39546;45.534;12.048;2024-02-15T03:10:20;9.70;84.10
53643;DHT22;39546;45.534;12.048;2024-02-15T03:16:22;9.80;84.30
53643;DHT22;39546;45.534;12.048;2024-02-15T03:22:27;9.90;84.30
53643;DHT22;39546;45.534;12.048;2024-02-15T03:28:30;9.90;84.10
53643;DHT22;39546;45.534;12.048;2024-02-15T03:34:32;9.90;84.00
53643;DHT22;39546;45.534;12.048;2024-02-15T03:40:34;9.70;84.10
53643;DHT22;39546;45.534;12.048;2024-02-15T03:46:35;9.70;84.30
53643;DHT22;39546;45.534;12.048;2024-02-15T03:52:37;9.60;84.50
53643;DHT22;39546;45.534;12.048;2024-02-15T03:58:39;9.70;84.40
53643;DHT22;39546;45.534;12.048;2024-02-15T04:04:41;9.70;84.30
53643;DHT22;39546;45.534;12.048;2024-02-15T04:10:44;9.60;84.30
53643;DHT22;39546;45.534;12.048;2024-02-15T04:16:47;9.50;84.10
53643;DHT22;39546;45.534;12.048;2024-02-15T04:22:49;9.20;84.20
53643;DHT22;39546;45.534;12.048;2024-02-15T04:28:51;9.20;84.60
53643;DHT22;39546;45.534;12.048;2024-02-15T04:34:54;9.10;84.30
53643;DHT22;39546;45.534;12.048;2024-02-15T04:40:55;8.90;84.70
53643;DHT22;39546;45.534;12.048;2024-02-15T04:46:57;9.00;84.50
53643;DHT22;39546;45.534;12.048;2024-02-15T04:53:00;8.70;84.40
53643;DHT22;39546;45.534;12.048;2024-02-15T04:59:02;8.70;84.50
53643;DHT22;39546;45.534;12.048;2024-02-15T05:05:03;8.60;84.50
53643;DHT22;39546;45.534;12.048;2024-02-15T05:11:05;8.70;84.80
53643;DHT22;39546;45.534;12.048;2024-02-15T05:17:08;9.10;84.30
53643;DHT22;39546;45.534;12.048;2024-02-15T05:23:12;9.30;83.50
53643;DHT22;39546;45.534;12.048;2024-02-15T05:29:14;9.50;83.00
53643;DHT22;39546;45.534;12.048;2024-02-15T05:35:17;9.70;82.80
53643;DHT22;39546;45.534;12.048;2024-02-15T05:41:20;9.70;82.20
53643;DHT22;39546;45.534;12.048;2024-02-15T05:47:22;9.50;81.90
53643;DHT22;39546;45.534;12.048;2024-02-15T05:53:25;9.20;82.80
53643;DHT22;39546;45.534;12.048;2024-02-15T05:59:27;9.50;83.00
53643;DHT22;39546;45.534;12.048;2024-02-15T06:05:28;9.90;82.40
53643;DHT22;39546;45.534;12.048;2024-02-15T06:11:30;10.00;81.80
53643;DHT22;39546;45.534;12.048;2024-02-15T06:17:32;9.70;81.40
53643;DHT22;39546;45.534;12.048;2024-02-15T06:23:54;9.30;82.30
53643;DHT22;39546;45.534;12.048;2024-02-15T06:29:58;9.70;82.10
53643;DHT22;39546;45.534;12.048;2024-02-15T06:36:18;10.00;81.60
53643;DHT22;39546;45.534;12.048;2024-02-15T06:42:38;9.80;81.30
53643;DHT22;39546;45.534;12.048;2024-02-15T06:48:42;9.80;81.20
53643;DHT22;39546;45.534;12.048;2024-02-15T06:54:46;9.60;81.40
53643;DHT22;39546;45.534;12.048;2024-02-15T07:00:50;10.00;81.60
53643;DHT22;39546;45.534;12.048;2024-02-15T07:06:52;10.00;81.20
53643;DHT22;39546;45.534;12.048;2024-02-15T07:12:55;10.00;80.70
53643;DHT22;39546;45.534;12.048;2024-02-15T07:18:57;9.90;81.30
53643;DHT22;39546;45.534;12.048;2024-02-15T07:25:00;10.20;81.60
53643;DHT22;39546;45.534;12.048;2024-02-15T07:31:01;10.30;81.60
53643;DHT22;39546;45.534;12.048;2024-02-15T07:37:04;10.20;81.50
53643;DHT22;39546;45.534;12.048;2024-02-15T07:43:06;10.40;81.30
53643;DHT22;39546;45.534;12.048;2024-02-15T07:49:08;10.40;81.40
53643;DHT22;39546;45.534;12.048;2024-02-15T07:55:09;10.30;81.30
53643;DHT22;39546;45.534;12.048;2024-02-15T08:01:14;10.20;81.40
53643;DHT22;39546;45.534;12.048;2024-02-15T08:07:17;10.30;82.10
53643;DHT22;39546;45.534;12.048;2024-02-15T08:13:22;10.40;82.20
53643;DHT22;39546;45.534;12.048;2024-02-15T08:19:29;10.60;82.30
53643;DHT22;39546;45.534;12.048;2024-02-15T08:25:31;10.50;82.00
53643;DHT22;39546;45.534;12.048;2024-02-15T08:31:33;10.50;82.50
53643;DHT22;39546;45.534;12.048;2024-02-15T08:37:40;10.60;82.50
53643;DHT22;39546;45.534;12.048;2024-02-15T08:43:43;10.70;83.30
53643;DHT22;39546;45.534;12.048;2024-02-15T08:49:45;10.70;83.90
53643;DHT22;39546;45.534;12.048;2024-02-15T08:55:47;10.60;83.70
53643;DHT22;39546;45.534;12.048;2024-02-15T09:01:50;10.60;84.00
53643;DHT22;39546;45.534;12.048;2024-02-15T09:07:53;10.80;84.10
53643;DHT22;39546;45.534;12.048;2024-02-15T09:13:55;10.90;84.20
53643;DHT22;39546;45.534;12.048;2024-02-15T09:19:57;11.00;84.10
53643;DHT22;39546;45.534;12.048;2024-02-15T09:25:59;11.00;84.20
53643;DHT22;39546;45.534;12.048;2024-02-15T09:32:00;11.20;84.70
53643;DHT22;39546;45.534;12.048;2024-02-15T09:38:05;11.20;84.60
53643;DHT22;39546;45.534;12.048;2024-02-15T09:44:07;11.40;84.70
53643;DHT22;39546;45.534;12.048;2024-02-15T09:50:14;11.70;84.90
53643;DHT22;39546;45.534;12.048;2024-02-15T09:56:16;11.70;84.90
53643;DHT22;39546;45.534;12.048;2024-02-15T10:02:19;11.70;85.00
53643;DHT22;39546;45.534;12.048;2024-02-15T10:08:22;11.60;85.40
53643;DHT22;39546;45.534;12.048;2024-02-15T10:14:27;11.60;86.20
53643;DHT22;39546;45.534;12.048;2024-02-15T10:20:29;11.80;86.20
53643;DHT22;39546;45.534;12.048;2024-02-15T10:26:32;11.80;85.70
53643;DHT22;39546;45.534;12.048;2024-02-15T10:32:37;11.80;85.60
53643;DHT22;39546;45.534;12.048;2024-02-15T10:38:39;11.60;85.60
53643;DHT22;39546;45.534;12.048;2024-02-15T10:44:42;11.50;86.40
53643;DHT22;39546;45.534;12.048;2024-02-15T10:50:45;11.50;86.50
53643;DHT22;39546;45.534;12.048;2024-02-15T10:56:49;11.70;86.40
53643;DHT22;39546;45.534;12.048;2024-02-15T11:03:01;11.80;86.70
53643;DHT22;39546;45.534;12.048;2024-02-15T11:09:04;11.80;87.00
53643;DHT22;39546;45.534;12.048;2024-02-15T11:15:08;11.90;86.90
53643;DHT22;39546;45.534;12.048;2024-02-15T11:21:11;11.80;87.10
53643;DHT22;39546;45.534;12.048;2024-02-15T11:27:27;11.80;86.80
53643;DHT22;39546;45.534;12.048;2024-02-15T11:33:30;11.90;86.80
53643;DHT22;39546;45.534;12.048;2024-02-15T11:39:42;11.90;86.90
53643;DHT22;39546;45.534;12.048;2024-02-15T11:45:45;11.90;86.90
53643;DHT22;39546;45.534;12.048;2024-02-15T11:51:47;12.20;87.20
53643;DHT22;39546;45.534;12.048;2024-02-15T11:57:59;12.40;87.20
53643;DHT22;39546;45.534;12.048;2024-02-15T12:04:06;12.60;87.40
53643;DHT22;39546;45.534;12.048;2024-02-15T12:10:26;13.00;87.50
53643;DHT22;39546;45.534;12.048;2024-02-15T12:16:46;13.20;86.70
53643;DHT22;39546;45.534;12.048;2024-02-15T12:23:06;13.20;87.20
53643;DHT22;39546;45.534;12.048;2024-02-15T12:29:08;13.50;87.10
53643;DHT22;39546;45.534;12.048;2024-02-15T12:35:12;13.60;87.30
53643;DHT22;39546;45.534;12.048;2024-02-15T12:41:20;13.70;87.00
53643;DHT22;39546;45.534;12.048;2024-02-15T12:47:22;13.80;86.80
53643;DHT22;39546;45.534;12.048;2024-02-15T12:53:24;14.00;86.80
53643;DHT22;39546;45.534;12.048;2024-02-15T12:59:25;14.00;86.50
53643;DHT22;39546;45.534;12.048;2024-02-15T13:05:27;14.10;86.60
53643;DHT22;39546;45.534;12.048;2024-02-15T13:11:29;14.20;86.50
53643;DHT22;39546;45.534;12.048;2024-02-15T13:17:32;14.20;86.20
53643;DHT22;39546;45.534;12.048;2024-02-15T13:23:35;14.20;86.00
53643;DHT22;39546;45.534;12.048;2024-02-15T13:29:37;14.00;86.10
53643;DHT22;39546;45.534;12.048;2024-02-15T13:35:39;14.20;86.30
53643;DHT22;39546;45.534;12.048;2024-02-15T13:41:41;14.20;85.70
53643;DHT22;39546;45.534;12.048;2024-02-15T13:47:46;14.30;85.90
53643;DHT22;39546;45.534;12.048;2024-02-15T13:53:48;14.50;84.80
53643;DHT22;39546;45.534;12.048;2024-02-15T13:59:50;14.50;85.20
53643;DHT22;39546;45.534;12.048;2024-02-15T14:05:52;14.60;85.10
53643;DHT22;39546;45.534;12.048;2024-02-15T14:11:54;14.70;85.20
53643;DHT22;39546;45.534;12.048;2024-02-15T14:17:56;14.90;84.90
53643;DHT22;39546;45.534;12.048;2024-02-15T14:23:59;15.20;85.20
53643;DHT22;39546;45.534;12.048;2024-02-15T14:30:01;15.50;85.40
53643;DHT22;39546;45.534;12.048;2024-02-15T14:36:21;15.70;85.30
53643;DHT22;39546;45.534;12.048;2024-02-15T14:42:22;15.80;85.90
53643;DHT22;39546;45.534;12.048;2024-02-15T14:48:24;15.90;86.00
53643;DHT22;39546;45.534;12.048;2024-02-15T14:54:27;16.10;86.50
53643;DHT22;39546;45.534;12.048;2024-02-15T15:00:28;16.10;86.80
53643;DHT22;39546;45.534;12.048;2024-02-15T15:06:30;16.30;86.30
53643;DHT22;39546;45.534;12.048;2024-02-15T15:12:50;16.20;86.90
53643;DHT22;39546;45.534;12.048;2024-02-15T15:18:52;16.10;87.40
53643;DHT22;39546;45.534;12.048;2024-02-15T15:24:54;16.10;87.40
53643;DHT22;39546;45.534;12.048;2024-02-15T15:30:56;16.30;87.10
53643;DHT22;39546;45.534;12.048;2024-02-15T15:36:58;16.60;86.80
53643;DHT22;39546;45.534;12.048;2024-02-15T15:43:00;16.80;86.40
53643;DHT22;39546;45.534;12.048;2024-02-15T15:49:04;16.80;85.90
53643;DHT22;39546;45.534;12.048;2024-02-15T15:55:08;16.40;86.50
53643;DHT22;39546;45.534;12.048;2024-02-15T16:01:13;16.00;86.80
53643;DHT22;39546;45.534;12.048;2024-02-15T16:07:15;15.80;87.20
53643;DHT22;39546;45.534;12.048;2024-02-15T16:13:22;15.60;87.00
53643;DHT22;39546;45.534;12.048;2024-02-15T16:19:23;15.40;87.00
53643;DHT22;39546;45.534;12.048;2024-02-15T16:25:25;15.00;87.10
53643;DHT22;39546;45.534;12.048;2024-02-15T16:31:28;14.50;87.60
53643;DHT22;39546;45.534;12.048;2024-02-15T16:37:30;14.20;87.90
53643;DHT22;39546;45.534;12.048;2024-02-15T16:43:33;13.90;88.10
53643;DHT22;39546;45.534;12.048;2024-02-15T16:49:35;13.80;88.40
53643;DHT22;39546;45.534;12.048;2024-02-15T16:55:39;13.80;88.10
53643;DHT22;39546;45.534;12.048;2024-02-15T17:01:41;14.00;87.70
53643;DHT22;39546;45.534;12.048;2024-02-15T17:07:43;14.10;87.40
53643;DHT22;39546;45.534;12.048;2024-02-15T17:13:45;14.10;87.10
53643;DHT22;39546;45.534;12.048;2024-02-15T17:19:49;13.90;86.90
53643;DHT22;39546;45.534;12.048;2024-02-15T17:25:52;13.70;87.30
53643;DHT22;39546;45.534;12.048;2024-02-15T17:31:55;13.70;87.10
53643;DHT22;39546;45.534;12.048;2024-02-15T17:37:56;13.50;86.70
53643;DHT22;39546;45.534;12.048;2024-02-15T17:43:59;13.20;87.00
53643;DHT22;39546;45.534;12.048;2024-02-15T17:50:02;13.10;87.20
53643;DHT22;39546;45.534;12.048;2024-02-15T17:56:04;12.90;87.00
53643;DHT22;39546;45.534;12.048;2024-02-15T18:02:07;13.00;87.10
53643;DHT22;39546;45.534;12.048;2024-02-15T18:08:09;12.80;86.60
53643;DHT22;39546;45.534;12.048;2024-02-15T18:14:12;12.70;86.60
53643;DHT22;39546;45.534;12.048;2024-02-15T18:20:14;12.50;86.90
53643;DHT22;39546;45.534;12.048;2024-02-15T18:26:16;12.50;86.30
53643;DHT22;39546;45.534;12.048;2024-02-15T18:32:19;12.20;86.30
53643;DHT22;39546;45.534;12.048;2024-02-15T18:38:21;11.80;86.50
53643;DHT22;39546;45.534;12.048;2024-02-15T18:44:23;11.60;86.60
53643;DHT22;39546;45.534;12.048;2024-02-15T18:50:27;11.50;86.80
53643;DHT22;39546;45.534;12.048;2024-02-15T18:56:29;11.50;86.50
53643;DHT22;39546;45.534;12.048;2024-02-15T19:02:30;11.30;86.40
53643;DHT22;39546;45.534;12.048;2024-02-15T19:08:32;11.20;86.60
53643;DHT22;39546;45.534;12.048;2024-02-15T19:14:34;11.20;86.60
53643;DHT22;39546;45.534;12.048;2024-02-15T19:20:36;11.20;86.60
53643;DHT22;39546;45.534;12.048;2024-02-15T19:26:38;11.00;86.50
53643;DHT22;39546;45.534;12.048;2024-02-15T19:32:44;11.00;86.50
53643;DHT22;39546;45.534;12.048;2024-02-15T19:38:45;10.90;86.60
53643;DHT22;39546;45.534;12.048;2024-02-15T19:44:47;10.80;86.40
53643;DHT22;39546;45.534;12.048;2024-02-15T19:50:50;10.80;86.40
53643;DHT22;39546;45.534;12.048;2024-02-15T19:56:51;10.70;86.40
53643;DHT22;39546;45.534;12.048;2024-02-15T20:02:53;10.70;86.40
53643;DHT22;39546;45.534;12.048;2024-02-15T20:08:55;10.70;86.30
53643;DHT22;39546;45.534;12.048;2024-02-15T20:14:58;10.60;86.30
53643;DHT22;39546;45.534;12.048;2024-02-15T20:21:00;10.50;86.20
53643;DHT22;39546;45.534;12.048;2024-02-15T20:27:03;10.50;86.30
53643;DHT22;39546;45.534;12.048;2024-02-15T20:33:05;10.50;86.40
53643;DHT22;39546;45.534;12.048;2024-02-15T20:39:13;10.70;86.00
53643;DHT22;39546;45.534;12.048;2024-02-15T20:45:17;10.50;85.80
53643;DHT22;39546;45.534;12.048;2024-02-15T20:51:21;10.50;85.90
53643;DHT22;39546;45.534;12.048;2024-02-15T20:57:23;10.50;85.90
53643;DHT22;39546;45.534;12.048;2024-02-15T21:03:25;10.40;85.70
53643;DHT22;39546;45.534;12.048;2024-02-15T21:09:26;10.40;85.50
53643;DHT22;39546;45.534;12.048;2024-02-15T21:15:28;10.40;85.40
53643;DHT22;39546;45.534;12.048;2024-02-15T21:21:30;10.60;84.90
53643;DHT22;39546;45.534;12.048;2024-02-15T21:27:32;10.60;84.70
53643;DHT22;39546;45.534;12.048;2024-02-15T21:33:33;10.70;84.50
53643;DHT22;39546;45.534;12.048;2024-02-15T21:39:39;10.80;83.80
53643;DHT22;39546;45.534;12.048;2024-02-15T21:45:44;10.70;83.80
53643;DHT22;39546;45.534;12.048;2024-02-15T21:51:45;10.30;83.60
53643;DHT22;39546;45.534;12.048;2024-02-15T21:57:47;10.10;83.90
53643;DHT22;39546;45.534;12.048;2024-02-15T22:03:49;10.00;84.10
53643;DHT22;39546;45.534;12.048;2024-02-15T22:09:52;10.20;84.00
53643;DHT22;39546;45.534;12.048;2024-02-15T22:15:54;10.50;83.30
53643;DHT22;39546;45.534;12.048;2024-02-15T22:21:56;10.50;83.00
53643;DHT22;39546;45.534;12.048;2024-02-15T22:27:58;10.30;82.90
53643;DHT22;39546;45.534;12.048;2024-02-15T22:33:59;10.10;83.60
53643;DHT22;39546;45.534;12.048;2024-02-15T22:40:01;10.10;83.50
53643;DHT22;39546;45.534;12.048;2024-02-15T22:46:05;10.10;83.30
53643;DHT22;39546;45.534;12.048;2024-02-15T22:52:08;9.80;83.40
53643;DHT22;39546;45.534;12.048;2024-02-15T22:58:10;9.70;83.70
53643;DHT22;39546;45.534;12.048;2024-02-15T23:04:12;9.40;84.00
53643;DHT22;39546;45.534;12.048;2024-02-15T23:10:13;9.40;84.20
53643;DHT22;39546;45.534;12.048;2024-02-15T23:16:15;9.20;84.30
53643;DHT22;39546;45.534;12.048;2024-02-15T23:22:16;9.20;84.40
53643;DHT22;39546;45.534;12.048;2024-02-15T23:28:18;9.10;84.60
53643;DHT22;39546;45.534;12.048;2024-02-15T23:34:20;9.40;84.50
53643;DHT22;39546;45.534;12.048;2024-02-15T23:40:21;9.20;84.20
53643;DHT22;39546;45.534;12.048;2024-02-15T23:46:23;9.40;84.60
53643;DHT22;39546;45.534;12.048;2024-02-15T23:52:25;9.40;84.20
53643;DHT22;39546;45.534;12.048;2024-02-15T23:58:27;9.40;84.20
